Time;durP1;ratioP1;P1;durP2;ratioP2;P2;SDS_P1;SDS_P2;PMS_P1;PMS_P2;Temp;Humidity;BMP_temperature;BMP_pressure;BME280_temperature;BME280_humidity;BME280_pressure;Samples;Min_cycle;Max_cycle;Signal;HPM_P1;HPM_P2
2024/01/08 00:01:06;;;;;;;177.55;68.93;;;;;;;7.69;nan;99403.19;5063270;28;20063;-68
2024/01/08 00:03:38;;;;;;;187.48;71.97;;;;;;;7.82;nan;99403.59;5066453;28;20169;-68
2024/01/08 00:06:08;;;;;;;181.10;70.47;;;;;;;7.84;nan;99408.69;5053103;28;20044;-70
2024/01/08 00:08:38;;;;;;;183.25;72.90;;;;;;;7.75;nan;99399.91;5062529;28;20135;-69
2024/01/08 00:11:07;;;;;;;172.52;66.72;;;;;;;7.87;nan;99392.56;5060427;28;20226;-71
2024/01/08 00:13:37;;;;;;;169.45;65.45;;;;;;;7.81;nan;99391.38;5065078;28;20111;-68
2024/01/08 00:16:06;;;;;;;161.00;67.07;;;;;;;7.58;nan;99391.09;5071843;28;20045;-69
2024/01/08 00:18:36;;;;;;;177.07;73.70;;;;;;;7.52;nan;99388.28;5071377;28;20136;-69
2024/01/08 00:21:05;;;;;;;183.77;70.00;;;;;;;7.54;nan;99399.47;5072840;28;20137;-68
2024/01/08 00:23:35;;;;;;;160.32;66.90;;;;;;;7.62;nan;99399.50;5073913;28;20048;-68
2024/01/08 00:26:05;;;;;;;177.48;68.82;;;;;;;7.92;nan;99392.91;5048995;28;20052;-68
2024/01/08 00:28:35;;;;;;;184.77;72.25;;;;;;;7.66;nan;99387.66;5075643;28;20147;-69
2024/01/08 00:31:04;;;;;;;182.55;70.50;;;;;;;7.46;nan;99388.88;5067669;28;20125;-68
2024/01/08 00:33:34;;;;;;;175.23;68.53;;;;;;;7.58;nan;99392.91;5070831;28;20059;-68
2024/01/08 00:36:03;;;;;;;171.02;68.45;;;;;;;7.46;nan;99397.63;5069763;28;20063;-68
2024/01/08 00:38:33;;;;;;;161.27;65.47;;;;;;;7.57;nan;99402.59;5057227;28;20513;-69
2024/01/08 00:41:04;;;;;;;167.65;63.55;;;;;;;7.49;nan;99409.66;5061469;28;20036;-69
2024/01/08 00:43:34;;;;;;;173.73;64.68;;;;;;;7.45;nan;99408.31;5049325;28;20102;-69
2024/01/08 00:46:03;;;;;;;172.27;66.20;;;;;;;7.45;nan;99411.78;5044916;28;20765;-69
2024/01/08 00:48:33;;;;;;;166.90;66.60;;;;;;;7.50;nan;99411.31;5045188;28;20498;-68
2024/01/08 00:51:02;;;;;;;163.38;63.92;;;;;;;7.80;nan;99415.25;5040336;28;20332;-67
2024/01/08 00:53:31;;;;;;;165.02;62.75;;;;;;;7.77;nan;99405.84;5045444;28;20148;-69
2024/01/08 00:56:01;;;;;;;167.80;63.67;;;;;;;7.70;nan;99407.44;5048104;28;20047;-68
2024/01/08 00:58:31;;;;;;;161.27;63.50;;;;;;;7.73;nan;99404.53;5078065;28;20048;-69
2024/01/08 01:01:00;;;;;;;173.05;66.82;;;;;;;7.60;nan;99415.50;5081088;28;20635;-69
2024/01/08 01:03:30;;;;;;;162.98;62.78;;;;;;;7.84;nan;99413.94;5057750;28;20573;-68
2024/01/08 01:06:00;;;;;;;171.82;67.13;;;;;;;7.73;nan;99417.72;5068254;28;20048;-69
2024/01/08 01:08:29;;;;;;;174.55;65.97;;;;;;;7.38;nan;99421.28;5090591;28;20048;-69
2024/01/08 01:10:59;;;;;;;175.35;66.35;;;;;;;7.63;nan;99435.44;5071757;28;20522;-69
2024/01/08 01:13:29;;;;;;;175.20;65.72;;;;;;;7.76;nan;99435.84;5090408;28;20740;-69
2024/01/08 01:15:58;;;;;;;168.20;65.10;;;;;;;7.54;nan;99433.72;5090705;28;20812;-69
2024/01/08 01:18:27;;;;;;;171.02;66.63;;;;;;;7.41;nan;99428.03;5063667;28;20051;-68
2024/01/08 01:20:57;;;;;;;179.55;68.05;;;;;;;7.46;nan;99437.16;5066528;28;20044;-68
2024/01/08 01:23:27;;;;;;;191.20;70.57;;;;;;;7.56;nan;99444.97;5070188;28;20066;-68
2024/01/08 01:25:56;;;;;;;189.75;71.20;;;;;;;7.47;nan;99445.88;5087171;28;20403;-69
2024/01/08 01:28:26;;;;;;;189.43;72.55;;;;;;;7.61;nan;99461.13;5049759;28;20045;-69
2024/01/08 01:30:55;;;;;;;183.45;72.97;;;;;;;7.65;nan;99463.31;5073627;28;20083;-69
2024/01/08 01:33:24;;;;;;;186.18;73.30;;;;;;;7.62;nan;99466.25;5075015;28;20067;-68
2024/01/08 01:35:54;;;;;;;194.75;76.53;;;;;;;7.61;nan;99472.47;5087515;28;20062;-69
2024/01/08 01:38:23;;;;;;;193.60;72.93;;;;;;;7.62;nan;99460.13;5067596;28;20091;-68
2024/01/08 01:40:53;;;;;;;203.23;77.07;;;;;;;7.32;nan;99476.38;5069879;28;20052;-68
2024/01/08 01:43:25;;;;;;;197.60;76.28;;;;;;;7.29;nan;99477.53;5070606;28;20055;-69
2024/01/08 01:45:57;;;;;;;196.50;76.85;;;;;;;7.41;nan;99476.31;5067243;28;20052;-68
2024/01/08 01:48:27;;;;;;;220.07;80.37;;;;;;;7.71;nan;99480.28;5102784;28;20475;-68
2024/01/08 01:50:57;;;;;;;206.02;74.88;;;;;;;7.51;nan;99478.84;5066060;28;20114;-69
2024/01/08 01:53:27;;;;;;;207.55;78.72;;;;;;;7.40;nan;99487.81;5083418;28;20093;-68
2024/01/08 01:55:57;;;;;;;214.40;80.82;;;;;;;7.54;nan;99486.44;5081755;28;20036;-69
2024/01/08 01:58:27;;;;;;;213.13;80.72;;;;;;;7.88;nan;99495.22;5069524;28;20583;-68
2024/01/08 02:00:57;;;;;;;228.43;82.65;;;;;;;7.86;nan;99499.84;5085678;28;20051;-69
2024/01/08 02:03:27;;;;;;;219.55;84.68;;;;;;;7.72;nan;99495.13;5055867;28;20052;-69
2024/01/08 02:05:57;;;;;;;226.70;82.95;;;;;;;7.58;nan;99493.06;5087357;28;20139;-69
2024/01/08 02:08:28;;;;;;;208.82;81.05;;;;;;;7.64;nan;99495.09;5064386;28;20712;-70
2024/01/08 02:10:58;;;;;;;218.95;83.20;;;;;;;7.69;nan;99498.09;5083412;28;20082;-69
2024/01/08 02:13:28;;;;;;;225.93;82.88;;;;;;;7.53;nan;99505.88;5080718;28;20414;-68
2024/01/08 02:15:57;;;;;;;223.90;82.13;;;;;;;7.40;nan;99498.34;5085674;28;20105;-68
2024/01/08 02:18:30;;;;;;;218.15;80.85;;;;;;;7.82;nan;99502.94;5061232;28;20062;-68
2024/01/08 02:21:00;;;;;;;231.40;84.35;;;;;;;7.80;nan;99504.91;5085466;28;20040;-68
2024/01/08 02:23:29;;;;;;;214.07;85.03;;;;;;;7.77;nan;99510.50;5071025;28;20048;-68
2024/01/08 02:25:59;;;;;;;224.23;83.07;;;;;;;7.70;nan;99512.91;5074852;28;20826;-68
2024/01/08 02:28:28;;;;;;;226.30;84.13;;;;;;;7.63;nan;99511.88;5083083;28;20474;-68
2024/01/08 02:30:58;;;;;;;208.18;80.38;;;;;;;7.47;nan;99517.03;5080258;28;20067;-69
2024/01/08 02:33:27;;;;;;;228.43;85.03;;;;;;;7.72;nan;99508.31;5067167;28;20058;-68
2024/01/08 02:35:58;;;;;;;227.63;86.35;;;;;;;7.56;nan;99516.13;5080524;28;20048;-69
2024/01/08 02:38:28;;;;;;;221.95;81.28;;;;;;;7.76;nan;99519.38;5065478;28;20059;-68
2024/01/08 02:40:57;;;;;;;239.90;90.32;;;;;;;7.69;nan;99521.81;5073746;28;20047;-68
2024/01/08 02:43:27;;;;;;;234.35;85.90;;;;;;;7.78;nan;99542.00;5083575;28;20531;-69
2024/01/08 02:45:56;;;;;;;236.77;88.50;;;;;;;7.73;nan;99543.44;5068308;28;20441;-69
2024/01/08 02:48:26;;;;;;;228.10;86.93;;;;;;;7.70;nan;99541.91;5069540;28;20097;-68
2024/01/08 02:50:55;;;;;;;214.18;82.47;;;;;;;7.50;nan;99546.53;5080046;28;20113;-69
2024/01/08 02:53:24;;;;;;;225.18;82.82;;;;;;;7.60;nan;99552.56;5084458;28;20147;-69
2024/01/08 02:55:54;;;;;;;221.25;82.53;;;;;;;7.59;nan;99548.28;5076146;28;20036;-69
2024/01/08 02:58:23;;;;;;;230.65;83.43;;;;;;;7.62;nan;99552.41;5083032;28;20151;-69
2024/01/08 03:00:53;;;;;;;213.40;80.63;;;;;;;7.53;nan;99555.94;5071929;28;20056;-69
2024/01/08 03:03:23;;;;;;;225.07;79.70;;;;;;;7.56;nan;99558.28;5069780;28;20059;-69
2024/01/08 03:05:54;;;;;;;225.38;81.90;;;;;;;7.73;nan;99570.63;5074215;28;20058;-68
2024/01/08 03:08:24;;;;;;;215.48;79.63;;;;;;;7.69;nan;99571.91;5081854;28;20072;-69
2024/01/08 03:10:53;;;;;;;208.35;81.45;;;;;;;7.68;nan;99573.72;5083334;28;20048;-69
2024/01/08 03:13:23;;;;;;;213.15;80.95;;;;;;;7.64;nan;99588.19;5081695;28;20044;-69
2024/01/08 03:15:52;;;;;;;212.38;80.00;;;;;;;7.63;nan;99593.59;5075627;28;20048;-69
2024/01/08 03:18:21;;;;;;;211.95;79.63;;;;;;;7.67;nan;99597.59;5069083;28;20749;-69
2024/01/08 03:20:51;;;;;;;210.65;76.35;;;;;;;7.86;nan;99597.44;5066178;28;20041;-69
2024/01/08 03:23:20;;;;;;;210.35;79.10;;;;;;;7.75;nan;99602.91;5054714;28;20402;-69
2024/01/08 03:25:50;;;;;;;208.25;79.18;;;;;;;7.62;nan;99611.22;5072598;28;20151;-69
2024/01/08 03:28:19;;;;;;;207.57;77.22;;;;;;;7.62;nan;99613.84;5061035;28;20040;-69
2024/01/08 03:30:49;;;;;;;208.18;77.60;;;;;;;7.63;nan;99625.22;5067078;28;20047;-69
2024/01/08 03:33:18;;;;;;;191.27;75.32;;;;;;;7.67;nan;99618.69;5055501;28;20036;-70
2024/01/08 03:35:48;;;;;;;222.63;77.97;;;;;;;7.71;nan;99613.91;5069455;28;20775;-69
2024/01/08 03:38:18;;;;;;;192.00;73.75;;;;;;;7.77;nan;99627.34;5085456;28;20051;-69
2024/01/08 03:40:47;;;;;;;209.70;80.55;;;;;;;7.73;nan;99626.00;5083756;28;20800;-70
2024/01/08 03:43:16;;;;;;;189.35;74.80;;;;;;;7.85;nan;99639.75;5078252;28;20055;-69
2024/01/08 03:45:46;;;;;;;195.85;74.07;;;;;;;7.85;nan;99640.59;5078611;28;20180;-69
2024/01/08 03:48:15;;;;;;;196.38;76.88;;;;;;;7.81;nan;99644.50;5062847;28;20147;-69
2024/01/08 03:50:45;;;;;;;208.77;73.70;;;;;;;7.84;nan;99649.47;5022428;28;20139;-69
2024/01/08 03:53:14;;;;;;;194.18;72.38;;;;;;;7.94;nan;99652.03;5074155;28;20094;-69
2024/01/08 03:55:44;;;;;;;188.57;75.30;;;;;;;7.94;nan;99655.50;5069105;28;20048;-68
2024/01/08 03:58:13;;;;;;;194.27;76.47;;;;;;;7.86;nan;99659.88;5081361;28;20136;-67
2024/01/08 04:00:43;;;;;;;198.07;78.47;;;;;;;7.83;nan;99661.03;5046790;28;20045;-66
2024/01/08 04:03:13;;;;;;;191.55;73.85;;;;;;;7.83;nan;99674.22;5062665;28;20048;-69
2024/01/08 04:05:43;;;;;;;192.13;73.00;;;;;;;7.63;nan;99677.97;5064030;28;20407;-68
2024/01/08 04:08:12;;;;;;;178.70;68.53;;;;;;;7.93;nan;99682.84;5062055;28;20064;-68
2024/01/08 04:10:43;;;;;;;181.38;70.72;;;;;;;8.10;nan;99691.72;5047589;28;20044;-68
2024/01/08 04:13:13;;;;;;;180.60;70.95;;;;;;;8.26;nan;99697.16;5056520;28;20079;-68
2024/01/08 04:15:42;;;;;;;176.68;71.35;;;;;;;8.26;nan;99697.16;5062402;28;20048;-69
2024/01/08 04:18:13;;;;;;;184.85;69.95;;;;;;;8.07;nan;99694.69;5057033;28;20044;-68
2024/01/08 04:20:42;;;;;;;171.45;65.70;;;;;;;8.17;nan;99695.44;5060920;28;20105;-68
2024/01/08 04:23:12;;;;;;;163.98;68.78;;;;;;;8.29;nan;99696.00;5060264;28;20813;-68
2024/01/08 04:25:41;;;;;;;165.88;65.47;;;;;;;8.21;nan;99699.41;5057015;28;20048;-69
2024/01/08 04:28:11;;;;;;;168.00;64.30;;;;;;;8.12;nan;99701.16;5042991;28;20051;-69
2024/01/08 04:30:41;;;;;;;171.65;64.20;;;;;;;8.17;nan;99700.72;5049937;28;20052;-69
2024/01/08 04:33:10;;;;;;;169.55;65.80;;;;;;;8.27;nan;99701.47;5064773;28;20072;-68
2024/01/08 04:35:40;;;;;;;186.80;67.55;;;;;;;8.33;nan;99706.13;5063550;28;20055;-69
2024/01/08 04:38:09;;;;;;;184.07;68.95;;;;;;;8.21;nan;99709.13;5077164;28;20058;-69
2024/01/08 04:40:38;;;;;;;176.00;69.40;;;;;;;8.52;nan;99713.88;5072534;28;20422;-69
2024/01/08 04:43:08;;;;;;;160.80;64.43;;;;;;;8.12;nan;99718.78;5073750;28;20051;-69
2024/01/08 04:45:37;;;;;;;172.02;65.95;;;;;;;8.56;nan;99709.09;5074377;28;20059;-68
2024/01/08 04:48:07;;;;;;;158.32;61.22;;;;;;;8.43;nan;99716.59;5070642;28;20114;-69
2024/01/08 04:50:37;;;;;;;163.25;64.50;;;;;;;8.41;nan;99705.34;5054409;28;20384;-69
2024/01/08 04:53:06;;;;;;;150.68;60.55;;;;;;;8.49;nan;99710.72;5077350;28;20543;-69
2024/01/08 04:55:35;;;;;;;150.70;59.95;;;;;;;8.66;nan;99717.75;5063578;28;20048;-69
2024/01/08 04:58:06;;;;;;;152.32;59.85;;;;;;;8.51;nan;99719.28;5067562;28;20051;-68
2024/01/08 05:00:36;;;;;;;153.93;59.22;;;;;;;8.63;nan;99707.50;5095657;28;20511;-69
2024/01/08 05:03:09;;;;;;;168.45;65.65;;;;;;;8.54;nan;99713.72;5095430;28;20052;-68
2024/01/08 05:05:38;;;;;;;;;;;;;;;8.36;nan;99713.75;5088896;28;20791;-69
2024/01/08 05:08:08;;;;;;;164.10;61.33;;;;;;;8.32;nan;99706.31;5087173;28;20001;-69
2024/01/08 05:10:38;;;;;;;168.60;61.97;;;;;;;8.32;nan;99717.66;5104361;28;20050;-69
2024/01/08 05:13:08;;;;;;;156.70;61.20;;;;;;;8.30;nan;99710.91;5077231;28;20127;-69
2024/01/08 05:15:37;;;;;;;165.88;65.32;;;;;;;8.34;nan;99707.78;5080856;28;20404;-70
2024/01/08 05:18:08;;;;;;;159.32;63.13;;;;;;;8.55;nan;99697.72;5096115;28;20039;-69
2024/01/08 05:20:38;;;;;;;151.15;62.08;;;;;;;8.57;nan;99705.50;5098950;28;20884;-69
2024/01/08 05:23:07;;;;;;;158.18;61.00;;;;;;;8.84;nan;99700.06;5069183;28;20051;-68
2024/01/08 05:25:37;;;;;;;166.88;62.72;;;;;;;9.02;nan;99705.25;5077639;28;20048;-71
2024/01/08 05:28:06;;;;;;;150.25;59.65;;;;;;;9.00;nan;99704.56;5085731;28;20063;-68
2024/01/08 05:30:36;;;;;;;158.38;62.83;;;;;;;9.06;nan;99706.59;5092947;28;20052;-69
2024/01/08 05:33:06;;;;;;;154.75;61.00;;;;;;;9.14;nan;99705.78;5080323;28;20063;-69
2024/01/08 05:35:37;;;;;;;144.85;62.65;;;;;;;9.10;nan;99705.28;5083547;28;20479;-68
2024/01/08 05:38:07;;;;;;;156.32;59.85;;;;;;;9.44;nan;99699.97;5089262;28;20047;-68
2024/01/08 05:40:37;;;;;;;137.70;58.33;;;;;;;9.10;nan;99702.66;5068895;28;20060;-68
2024/01/08 05:43:06;;;;;;;147.73;60.42;;;;;;;9.26;nan;99700.06;5085958;28;20083;-65
2024/01/08 05:45:36;;;;;;;143.55;58.38;;;;;;;9.30;nan;99701.41;5086463;28;20068;-68
2024/01/08 05:48:07;;;;;;;156.80;61.63;;;;;;;9.41;nan;99695.00;5068842;28;20052;-68
2024/01/08 05:50:40;;;;;;;143.40;56.17;;;;;;;9.35;nan;99690.34;5049425;28;20044;-68
2024/01/08 05:53:09;;;;;;;164.60;63.50;;;;;;;9.44;nan;99700.78;5064684;28;20054;-68
2024/01/08 05:55:39;;;;;;;148.88;59.30;;;;;;;9.31;nan;99692.47;5098366;28;20411;-68
2024/01/08 05:58:08;;;;;;;149.20;59.92;;;;;;;9.35;nan;99693.81;5087463;28;20036;-68
2024/01/08 06:00:38;;;;;;;147.57;60.10;;;;;;;9.28;nan;99691.97;5072739;28;20044;-69
2024/01/08 06:03:08;;;;;;;150.82;62.00;;;;;;;9.45;nan;99689.22;5073234;28;20101;-70
2024/01/08 06:05:37;;;;;;;139.70;60.25;;;;;;;9.62;nan;99690.09;5093031;28;20043;-68
2024/01/08 06:08:08;;;;;;;135.93;60.00;;;;;;;9.80;nan;99685.50;5091341;28;20480;-67
2024/01/08 06:10:38;;;;;;;160.80;64.72;;;;;;;9.82;nan;99696.72;5062840;28;20048;-68
2024/01/08 06:13:10;;;;;;;133.27;56.78;;;;;;;9.68;nan;99697.38;5085135;28;20067;-68
2024/01/08 06:15:39;;;;;;;147.00;60.30;;;;;;;9.67;nan;99694.91;5089878;28;20436;-68
2024/01/08 06:18:09;;;;;;;161.70;62.55;;;;;;;9.81;nan;99694.28;5091044;28;20122;-68
2024/01/08 06:20:38;;;;;;;152.60;61.83;;;;;;;9.77;nan;99699.06;5093600;28;20039;-68
2024/01/08 06:23:08;;;;;;;143.13;60.95;;;;;;;9.64;nan;99692.59;5087316;28;20047;-69
2024/01/08 06:25:37;;;;;;;141.45;59.72;;;;;;;10.01;nan;99674.44;5090231;28;20048;-67
2024/01/08 06:28:07;;;;;;;147.35;61.63;;;;;;;10.28;nan;99673.28;5092634;28;20044;-69
2024/01/08 06:30:36;;;;;;;161.88;62.15;;;;;;;9.88;nan;99664.34;5082360;28;20052;-68
2024/01/08 06:33:06;;;;;;;154.55;65.15;;;;;;;9.99;nan;99665.84;5071162;28;20048;-67
2024/01/08 06:35:35;;;;;;;147.38;62.80;;;;;;;10.26;nan;99662.06;5082036;28;20126;-67
2024/01/08 06:38:05;;;;;;;155.48;60.90;;;;;;;10.28;nan;99665.34;5085929;28;20044;-68
2024/01/08 06:40:34;;;;;;;143.85;60.83;;;;;;;10.40;nan;99652.63;5086221;28;20052;-66
2024/01/08 06:43:04;;;;;;;158.00;65.97;;;;;;;10.59;nan;99649.59;5086352;28;20059;-67
2024/01/08 06:45:33;;;;;;;156.13;64.00;;;;;;;10.71;nan;99654.34;5086495;28;20090;-68
2024/01/08 06:48:02;;;;;;;130.23;57.60;;;;;;;10.83;nan;99649.53;5103538;28;20051;-70
2024/01/08 06:50:32;;;;;;;142.32;60.35;;;;;;;10.96;nan;99648.97;5093634;28;20048;-69
2024/01/08 06:53:02;;;;;;;144.40;59.85;;;;;;;11.11;nan;99644.59;5090719;28;20415;-69
2024/01/08 06:55:31;;;;;;;142.05;60.78;;;;;;;10.97;nan;99642.69;5091701;28;20071;-69
2024/01/08 06:58:01;;;;;;;153.68;65.18;;;;;;;10.93;nan;99636.09;5080959;28;20036;-69
2024/01/08 07:00:30;;;;;;;141.82;59.20;;;;;;;11.11;nan;99628.69;5071593;28;20041;-69
2024/01/08 07:03:00;;;;;;;122.93;56.47;;;;;;;11.18;nan;99632.31;5076410;28;20044;-69
2024/01/08 07:05:30;;;;;;;136.38;57.55;;;;;;;11.41;nan;99629.72;5094569;28;20405;-68
2024/01/08 07:07:59;;;;;;;134.25;57.80;;;;;;;11.76;nan;99631.00;5076132;28;20486;-67
2024/01/08 07:10:30;;;;;;;131.52;57.67;;;;;;;12.17;nan;99620.88;5096707;28;20123;-66
2024/01/08 07:12:59;;;;;;;142.73;59.40;;;;;;;12.11;nan;99615.28;5087059;28;20073;-69
2024/01/08 07:15:40;;;;;;;142.50;61.00;;;;;;;11.96;nan;99611.75;5071096;28;20071;-69
2024/01/08 07:18:10;;;;;;;149.98;64.63;;;;;;;11.78;nan;99600.63;5085341;28;20495;-72
2024/01/08 07:20:41;;;;;;;150.80;63.95;;;;;;;12.03;nan;99591.47;5083535;28;20050;-70
2024/01/08 07:23:13;;;;;;;142.18;63.22;;;;;;;11.48;nan;99581.09;5074924;28;20376;-70
2024/01/08 07:25:42;;;;;;;144.05;61.60;;;;;;;11.64;nan;99583.59;5079962;28;20061;-68
2024/01/08 07:28:15;;;;;;;151.20;64.07;;;;;;;11.91;nan;99579.59;5097951;28;20039;-68
2024/01/08 07:30:45;;;;;;;150.90;65.77;;;;;;;12.12;nan;99573.63;5088913;28;20441;-68
2024/01/08 07:33:15;;;;;;;143.68;61.83;;;;;;;12.46;nan;99565.13;5092158;28;20345;-68
2024/01/08 07:35:44;;;;;;;151.23;66.63;;;;;;;12.29;nan;99563.66;5091008;28;20047;-69
2024/01/08 07:38:14;;;;;;;132.57;61.95;;;;;;;12.29;nan;99561.81;5086027;28;20507;-71
2024/01/08 07:40:43;;;;;;;134.70;58.35;;;;;;;12.20;nan;99551.47;5069640;28;20075;-66
2024/01/08 07:43:13;;;;;;;134.98;58.85;;;;;;;12.28;nan;99552.19;5065377;28;20125;-69
2024/01/08 07:45:42;;;;;;;135.27;59.38;;;;;;;12.46;nan;99552.66;5079385;28;20051;-70
2024/01/08 07:48:12;;;;;;;139.88;60.17;;;;;;;12.64;nan;99551.47;5094678;28;20479;-69
2024/01/08 07:50:42;;;;;;;142.70;62.80;;;;;;;12.32;nan;99532.22;5090061;28;20032;-71
2024/01/08 07:53:11;;;;;;;140.48;62.83;;;;;;;12.48;nan;99558.59;5087296;28;20062;-69
2024/01/08 07:55:41;;;;;;;128.30;58.28;;;;;;;12.77;nan;99551.63;5073645;28;20062;-70
2024/01/08 07:58:15;;;;;;;125.40;59.00;;;;;;;12.69;nan;99555.22;5075090;28;20047;-70
2024/01/08 08:00:51;;;;;;;127.20;58.50;;;;;;;12.79;nan;99550.41;5088247;28;20060;-70
2024/01/08 08:03:21;;;;;;;128.63;56.10;;;;;;;12.71;nan;99552.34;5081866;28;20071;-71
2024/01/08 08:05:51;;;;;;;120.35;54.30;;;;;;;12.50;nan;99556.59;5081877;28;20146;-70
2024/01/08 08:08:21;;;;;;;126.63;56.13;;;;;;;12.28;nan;99551.38;5084495;28;20043;-70
2024/01/08 08:10:50;;;;;;;136.10;56.20;;;;;;;12.41;nan;99551.56;5084352;28;20052;-71
2024/01/08 08:13:20;;;;;;;127.55;53.58;;;;;;;12.53;nan;99547.41;5079741;28;20044;-70
2024/01/08 08:15:49;;;;;;;119.13;52.65;;;;;;;12.60;nan;99535.06;5083008;28;20039;-70
2024/01/08 08:18:18;;;;;;;121.38;53.88;;;;;;;12.77;nan;99525.03;5083755;28;20448;-72
2024/01/08 08:20:48;;;;;;;124.50;53.15;;;;;;;12.97;nan;99515.44;5065090;28;20505;-71
2024/01/08 08:23:17;;;;;;;120.38;55.00;;;;;;;12.78;nan;99511.56;5073735;28;20487;-70
2024/01/08 08:25:47;;;;;;;138.18;57.05;;;;;;;12.61;nan;99504.84;5064517;28;20342;-70
2024/01/08 08:28:17;;;;;;;120.03;52.38;;;;;;;12.56;nan;99505.38;5079381;28;20051;-69
2024/01/08 08:30:47;;;;;;;114.80;51.47;;;;;;;12.58;nan;99495.38;5072788;28;20151;-69
2024/01/08 08:33:16;;;;;;;119.25;56.58;;;;;;;12.50;nan;99494.66;5060006;28;20135;-70
2024/01/08 08:35:45;;;;;;;124.03;56.17;;;;;;;12.48;nan;99486.06;5084337;28;20052;-69
2024/01/08 08:38:16;;;;;;;123.80;55.95;;;;;;;12.39;nan;99480.00;5080210;28;20187;-70
2024/01/08 08:40:46;;;;;;;122.88;53.92;;;;;;;12.65;nan;99468.06;5070361;28;20051;-69
2024/01/08 08:43:15;;;;;;;116.93;53.00;;;;;;;12.65;nan;99473.38;5071068;28;20048;-70
2024/01/08 08:45:45;;;;;;;118.18;53.33;;;;;;;12.77;nan;99466.56;5087623;28;20044;-70
2024/01/08 08:48:14;;;;;;;129.25;54.78;;;;;;;12.73;nan;99462.63;5083438;28;20062;-70
2024/01/08 08:50:44;;;;;;;115.65;53.65;;;;;;;12.66;nan;99459.09;5081655;28;20045;-70
2024/01/08 08:53:13;;;;;;;116.40;54.30;;;;;;;12.71;nan;99457.50;5079655;28;20059;-70
2024/01/08 08:55:43;;;;;;;114.97;50.95;;;;;;;12.57;nan;99463.66;5083262;28;20039;-71
2024/01/08 08:58:12;;;;;;;114.72;50.83;;;;;;;12.31;nan;99455.38;5080879;28;20507;-70
2024/01/08 09:00:42;;;;;;;125.50;54.92;;;;;;;12.33;nan;99446.22;5062930;28;20052;-67
2024/01/08 09:03:11;;;;;;;116.78;52.15;;;;;;;12.53;nan;99444.63;5044546;28;20508;-70
2024/01/08 09:05:41;;;;;;;115.68;52.10;;;;;;;12.44;nan;99439.59;5063630;28;20535;-69
2024/01/08 09:08:14;;;;;;;121.70;52.57;;;;;;;12.21;nan;99433.63;5067752;28;20132;-69
2024/01/08 09:10:43;;;;;;;119.18;54.10;;;;;;;12.16;nan;99423.53;5073073;28;20289;-69
2024/01/08 09:13:13;;;;;;;120.13;55.15;;;;;;;12.27;nan;99428.38;5069833;28;20048;-69
2024/01/08 09:15:42;;;;;;;120.20;53.50;;;;;;;12.49;nan;99423.94;5071402;28;20044;-70
2024/01/08 09:18:12;;;;;;;122.97;54.08;;;;;;;12.46;nan;99413.69;5065178;28;20445;-70
2024/01/08 09:20:42;;;;;;;127.78;56.08;;;;;;;12.61;nan;99419.78;5053806;28;20122;-71
2024/01/08 09:23:12;;;;;;;127.57;57.83;;;;;;;12.43;nan;99420.22;5066347;28;20051;-70
2024/01/08 09:25:41;;;;;;;130.73;56.83;;;;;;;12.52;nan;99415.59;5066172;28;20056;-68
2024/01/08 09:28:11;;;;;;;121.90;54.97;;;;;;;12.42;nan;99413.25;5071762;28;20136;-69
2024/01/08 09:30:41;;;;;;;124.50;57.22;;;;;;;12.50;nan;99407.81;5067891;28;20044;-69
2024/01/08 09:33:10;;;;;;;131.32;57.03;;;;;;;12.48;nan;99409.03;5053191;28;20036;-69
2024/01/08 09:35:39;;;;;;;136.55;58.60;;;;;;;12.46;nan;99401.22;5063024;28;20527;-70
2024/01/08 09:38:09;;;;;;;127.72;56.20;;;;;;;12.33;nan;99397.59;5061900;28;20052;-69
2024/01/08 09:40:41;;;;;;;130.80;58.65;;;;;;;12.30;nan;99390.00;5059996;28;20130;-71
2024/01/08 09:43:18;;;;;;;134.50;58.63;;;;;;;12.28;nan;99392.84;5057395;28;20055;-71
2024/01/08 09:45:57;;;;;;;146.10;62.50;;;;;;;12.28;nan;99384.88;5064145;28;20297;-71
2024/01/08 09:48:27;;;;;;;125.72;59.47;;;;;;;12.37;nan;99386.41;5064718;28;20122;-71
2024/01/08 09:50:59;;;;;;;138.10;59.05;;;;;;;12.23;nan;99379.28;5046275;28;20052;-71
2024/01/08 09:53:30;;;;;;;137.30;60.25;;;;;;;12.28;nan;99374.25;5001734;28;20032;-71
2024/01/08 09:56:00;;;;;;;136.35;62.05;;;;;;;12.16;nan;99370.44;5064111;28;20439;-71
2024/01/08 09:58:29;;;;;;;145.77;63.80;;;;;;;12.24;nan;99367.66;5065007;28;20067;-71
2024/01/08 10:00:59;;;;;;;141.90;63.28;;;;;;;12.23;nan;99371.31;5044467;28;20056;-70
2024/01/08 10:03:28;;;;;;;136.52;62.25;;;;;;;12.26;nan;99368.28;5064901;28;20036;-70
2024/01/08 10:05:58;;;;;;;138.02;63.53;;;;;;;12.20;nan;99368.22;5069686;28;20563;-70
2024/01/08 10:08:30;;;;;;;149.43;65.22;;;;;;;11.97;nan;99374.50;5066099;28;20053;-70
2024/01/08 10:11:00;;;;;;;144.32;62.42;;;;;;;12.11;nan;99372.81;5067733;28;20033;-70
2024/01/08 10:13:30;;;;;;;154.02;69.25;;;;;;;11.76;nan;99377.06;5065754;28;20538;-70
2024/01/08 10:16:00;;;;;;;145.50;65.32;;;;;;;11.93;nan;99377.69;5063996;28;20106;-70
2024/01/08 10:18:30;;;;;;;149.63;67.10;;;;;;;11.89;nan;99373.75;5059089;28;20683;-70
2024/01/08 10:21:17;;;;;;;153.00;69.28;;;;;;;11.92;nan;99374.22;5062194;28;20040;-70
2024/01/08 10:23:47;;;;;;;149.20;63.85;;;;;;;11.94;nan;99371.38;5065947;28;20576;-69
2024/01/08 10:26:17;;;;;;;146.93;67.53;;;;;;;11.78;nan;99368.91;5058890;28;20072;-70
2024/01/08 10:28:47;;;;;;;167.18;69.78;;;;;;;11.61;nan;99373.53;5064834;28;20044;-69
2024/01/08 10:31:17;;;;;;;148.88;66.88;;;;;;;11.59;nan;99376.41;5052675;28;20147;-70
2024/01/08 10:33:46;;;;;;;163.43;68.40;;;;;;;11.24;nan;99377.09;5067563;28;20048;-69
2024/01/08 10:36:16;;;;;;;158.00;70.30;;;;;;;11.35;nan;99370.50;5063160;28;20047;-70
2024/01/08 10:38:47;;;;;;;158.88;67.65;;;;;;;11.43;nan;99365.94;5052963;28;20056;-69
2024/01/08 10:41:17;;;;;;;162.25;68.47;;;;;;;11.54;nan;99359.38;5060259;28;20061;-69
2024/01/08 10:43:46;;;;;;;157.98;70.32;;;;;;;11.21;nan;99361.53;5055708;28;20057;-71
2024/01/08 10:46:16;;;;;;;154.98;66.90;;;;;;;11.21;nan;99367.66;5065401;28;20122;-69
2024/01/08 10:48:47;;;;;;;153.50;65.80;;;;;;;11.15;nan;99359.59;5061460;28;20053;-69
2024/01/08 10:51:18;;;;;;;162.82;65.13;;;;;;;11.07;nan;99359.66;5065938;28;20049;-69
2024/01/08 10:53:53;;;;;;;161.85;68.30;;;;;;;11.14;nan;99358.78;5067681;28;20044;-69
2024/01/08 10:56:27;;;;;;;160.02;68.32;;;;;;;10.82;nan;99353.75;5068115;28;20115;-69
2024/01/08 10:59:06;;;;;;;156.65;66.20;;;;;;;10.99;nan;99346.47;5072419;28;20043;-69
2024/01/08 11:01:37;;;;;;;154.90;66.68;;;;;;;10.79;nan;99348.81;5074129;28;20047;-71
2024/01/08 11:04:07;;;;;;;157.45;68.32;;;;;;;10.75;nan;99353.63;5062108;28;20102;-69
2024/01/08 11:06:38;;;;;;;158.10;67.78;;;;;;;10.89;nan;99352.03;5085149;28;20048;-70
2024/01/08 11:09:30;;;;;;;158.35;66.57;;;;;;;10.81;nan;99350.28;5087605;28;20040;-70
2024/01/08 11:12:03;;;;;;;153.70;69.78;;;;;;;10.81;nan;99362.69;5098316;28;20052;-69
2024/01/08 11:14:33;;;;;;;154.32;68.60;;;;;;;10.92;nan;99351.69;5087448;28;20112;-71
2024/01/08 11:17:03;;;;;;;160.55;70.10;;;;;;;10.54;nan;99350.81;5086445;28;20048;-71
2024/01/08 11:19:32;;;;;;;165.52;68.88;;;;;;;10.60;nan;99344.00;5076377;28;20498;-71
2024/01/08 11:22:11;;;;;;;161.38;68.53;;;;;;;10.66;nan;99346.78;5095128;28;20047;-69
2024/01/08 11:24:41;;;;;;;152.75;68.88;;;;;;;10.89;nan;99338.78;5080922;28;20047;-70
2024/01/08 11:27:11;;;;;;;162.98;69.47;;;;;;;10.92;nan;99349.03;5081358;28;20076;-70
2024/01/08 11:29:40;;;;;;;155.63;68.88;;;;;;;10.89;nan;99337.97;5052459;28;20044;-71
2024/01/08 11:32:32;;;;;;;159.10;68.97;;;;;;;10.73;nan;99338.91;5072547;28;20545;-69
2024/01/08 11:35:07;;;;;;;146.70;64.43;;;;;;;10.68;nan;99334.16;4726515;28;10000211;-70
2024/01/08 11:37:42;;;;;;;143.45;63.85;;;;;;;10.62;nan;99342.78;5073031;28;20113;-70
2024/01/08 11:40:20;;;;;;;144.38;63.08;;;;;;;10.55;nan;99343.69;5063743;28;20068;-71
2024/01/08 11:42:50;;;;;;;137.60;60.00;;;;;;;10.59;nan;99351.09;5066899;28;20143;-71